Aeroporto :
LOGIN :

Iscrizione | Disclaimer

   EN    FR    IT 

 










Sommario :    VFR   VFR Marginale   IFR   IFR Intensivo   IFR Molto Intensivo
Visibilità : 
Base nubi : 
>= 8 km
>= 3000ft
5 / 8 km
1000 / 3000 ft
1500m / 5 km
500 / 1000 ft
800 / 1500m
200 / 500 ft
< 800m
< 200 ft
Simboli :   Temporali  Nebbia  Neve Forte  Precipitazioni Forti  Vento > 20 kt
SIGMETs :   Varie  Temporali  Ghiacco  Turbolenza  Onda orograficha  Ceneri Vulcaniche






- Altitudine del aeroporto : 46 ft
- Codice IATA : SNN


EINN - Shannon

ULTIMO METAR :
  • 240630Z 23022KT 9999 -RA FEW009 BKN012 11/10 Q1000 NOSIG

METARs OBSOLETI :
  • 240600Z 22021KT 9999 -RA FEW009 BKN011 11/10 Q1000 NOSIG
  • 240530Z 22023KT 9999 -RA FEW010 BKN012 11/10 Q1001 NOSIG
  • 240500Z 22021G33KT 9999 FEW009 BKN013 11/10 Q1001 NOSIG
  • 240430Z 22023KT 9999 -RA FEW010 BKN014 11/10 Q1002 NOSIG
  • 240400Z 22023KT 6000 RA FEW008 BKN012 BKN016 11/10 Q1002 TEMPO 3000

TAF TAF EINN
Valido dal 24 a 06 ore il 25 a 06 ore UTC


240500Z 2406/2506 22020KT 9999 FEW010 BKN020
TEMPO 2406/2410 24025G38KT BKN009
PROB40
TEMPO 2406/2408 4000 RA
BECMG 2410/2412 29015KT
TEMPO 2410/2418 28020G30KT
PROB40
TEMPO 2412/2506 -SHRA FEW018CB
BECMG 2418/2420 25012KT



MetMap, La meteo Aeronautica in un colpo d'occhio ! - Copyright ORBIFLY Dicembre 2007 - Disclaimer

ORBIFLY MET'MAP TEAM :

Programmazione e sviluppo : Alexandra Zaïnal
Concezione : Baudouin d'Aumeries
Aiuto per la programmazione : Marc-Olivier Méhu
Supporto tecnico e logistico : Manuel Goepfert
Aiuto per la traduzione : Arnaldo La Scala

Contatto : metmap@orbifly.com




FONTI E CREDITI :

   NOAA